createdAt,value
2019-03-22T00:00:27.983Z,6.92
2019-03-22T00:02:55.229Z,6.94
2019-03-22T00:05:22.543Z,7.10
2019-03-22T00:07:49.805Z,7.08
2019-03-22T00:10:17.146Z,6.96
2019-03-22T00:12:44.355Z,6.85
2019-03-22T00:15:11.646Z,6.77
2019-03-22T00:17:38.760Z,6.77
2019-03-22T00:20:06.131Z,6.75
2019-03-22T00:22:33.452Z,6.68
2019-03-22T00:25:00.661Z,6.57
2019-03-22T00:27:27.887Z,6.57
2019-03-22T00:29:55.104Z,6.54
2019-03-22T00:32:22.438Z,6.70
2019-03-22T00:34:49.762Z,6.98
2019-03-22T00:37:17.058Z,6.79
2019-03-22T00:39:44.408Z,6.75
2019-03-22T00:42:11.730Z,6.61
2019-03-22T00:44:39.071Z,6.49
2019-03-22T00:47:06.378Z,6.66
2019-03-22T00:49:33.572Z,6.62
2019-03-22T00:52:00.796Z,6.48
2019-03-22T00:54:27.972Z,6.36
2019-03-22T00:56:55.319Z,6.25
2019-03-22T00:59:22.633Z,6.19
2019-03-22T01:01:50.014Z,6.17
2019-03-22T01:04:17.211Z,6.17
2019-03-22T01:06:44.430Z,6.20
2019-03-22T01:09:11.730Z,6.26
2019-03-22T01:11:39.103Z,6.34
2019-03-22T01:14:06.411Z,6.23
2019-03-22T01:16:33.920Z,6.53
2019-03-22T01:19:01.228Z,6.32
2019-03-22T01:21:28.542Z,6.48
2019-03-22T01:23:56.144Z,6.30
2019-03-22T01:26:23.462Z,6.44
2019-03-22T01:28:50.758Z,6.43
2019-03-22T01:31:18.068Z,6.52
2019-03-22T01:33:45.610Z,6.65
2019-03-22T01:36:13.916Z,6.49
2019-03-22T01:38:41.461Z,6.41
2019-03-22T01:41:08.793Z,6.24
2019-03-22T01:43:36.109Z,6.13
2019-03-22T01:46:03.436Z,6.11
2019-03-22T01:48:30.763Z,6.10
2019-03-22T01:50:57.980Z,6.06
2019-03-22T01:53:25.325Z,6.16
2019-03-22T01:55:52.629Z,6.33
2019-03-22T01:58:20.004Z,6.31
2019-03-22T02:00:47.407Z,6.32
2019-03-22T02:03:14.726Z,6.01
2019-03-22T02:05:41.923Z,5.90
2019-03-22T02:08:09.144Z,5.90
2019-03-22T02:10:36.496Z,5.69
2019-03-22T02:13:03.876Z,5.84
2019-03-22T02:15:31.190Z,5.68
2019-03-22T02:17:58.533Z,5.56
2019-03-22T02:20:26.002Z,5.42
2019-03-22T02:22:53.334Z,5.60
2019-03-22T02:25:26.787Z,5.43
2019-03-22T02:28:03.649Z,5.43
2019-03-22T02:30:23.266Z,5.47
2019-03-22T02:32:50.496Z,5.56
2019-03-22T02:35:28.252Z,5.43
2019-03-22T02:37:47.052Z,5.33
2019-03-22T02:40:14.775Z,5.36
2019-03-22T02:42:42.098Z,5.45
2019-03-22T02:45:09.820Z,5.45
2019-03-22T02:47:37.148Z,5.45
2019-03-22T02:50:17.182Z,5.52
2019-03-22T02:52:34.476Z,5.65
2019-03-22T02:55:01.780Z,5.51
2019-03-22T02:57:28.902Z,5.53
2019-03-22T02:59:56.131Z,5.46
2019-03-22T03:02:23.434Z,5.54
2019-03-22T03:04:50.761Z,5.62
2019-03-22T03:07:18.064Z,5.42
2019-03-22T03:09:45.300Z,5.37
2019-03-22T03:12:12.530Z,5.33
2019-03-22T03:14:39.740Z,5.23
2019-03-22T03:17:06.984Z,5.23
2019-03-22T03:19:34.314Z,5.15
2019-03-22T03:22:01.537Z,5.18
2019-03-22T03:24:28.922Z,5.18
2019-03-22T03:26:56.231Z,5.01
2019-03-22T03:29:23.600Z,5.01
2019-03-22T03:31:50.916Z,4.95
2019-03-22T03:34:18.155Z,4.93
2019-03-22T03:36:45.467Z,4.81
2019-03-22T03:39:12.808Z,4.74
2019-03-22T03:41:40.103Z,4.68
2019-03-22T03:44:07.435Z,4.70
2019-03-22T03:46:34.665Z,4.63
2019-03-22T03:49:02.313Z,4.70
2019-03-22T03:51:29.537Z,4.57
2019-03-22T03:53:56.761Z,4.57
2019-03-22T03:56:23.876Z,4.49
2019-03-22T03:58:52.929Z,4.92
2019-03-22T04:01:20.431Z,4.65
2019-03-22T04:03:47.765Z,4.82
2019-03-22T04:06:15.076Z,4.61
2019-03-22T04:08:42.402Z,4.61
2019-03-22T04:11:09.632Z,4.58
2019-03-22T04:13:36.864Z,4.57
2019-03-22T04:16:04.075Z,4.81
2019-03-22T04:18:31.304Z,4.98
2019-03-22T04:20:58.432Z,4.98
2019-03-22T04:23:25.732Z,4.93
2019-03-22T04:25:53.070Z,4.82
2019-03-22T04:28:20.267Z,4.73
2019-03-22T04:30:47.956Z,4.63
2019-03-22T04:33:15.061Z,4.57
2019-03-22T04:35:42.202Z,4.66
2019-03-22T04:38:09.408Z,4.57
2019-03-22T04:40:36.663Z,4.47
2019-03-22T04:43:03.967Z,4.47
2019-03-22T04:45:33.197Z,4.52
2019-03-22T04:48:05.454Z,4.55
2019-03-22T04:50:36.603Z,5.00
2019-03-22T04:53:04.826Z,4.75
2019-03-22T04:55:34.212Z,4.92
2019-03-22T04:58:02.686Z,4.92
2019-03-22T05:00:30.831Z,4.80
2019-03-22T05:02:58.633Z,4.73
2019-03-22T05:05:25.958Z,4.66
2019-03-22T05:07:53.381Z,4.66
2019-03-22T05:10:22.652Z,4.92
2019-03-22T05:12:51.566Z,4.99
2019-03-22T05:15:20.311Z,4.84
2019-03-22T05:17:48.028Z,4.84
2019-03-22T05:20:17.163Z,4.84
2019-03-22T05:22:45.368Z,4.76
2019-03-22T05:25:13.412Z,4.71
2019-03-22T05:27:43.775Z,4.76
2019-03-22T05:30:36.395Z,4.77
2019-03-22T05:33:03.702Z,4.86
2019-03-22T05:35:30.921Z,4.86
2019-03-22T05:37:58.128Z,5.02
2019-03-22T05:40:25.351Z,5.35
2019-03-22T05:42:52.608Z,5.23
2019-03-22T05:45:19.818Z,5.25
2019-03-22T05:47:47.018Z,5.13
2019-03-22T05:50:14.141Z,5.17
2019-03-22T05:52:41.448Z,5.22
2019-03-22T05:55:08.766Z,5.34
2019-03-22T05:57:36.134Z,5.34
2019-03-22T06:00:04.620Z,5.45
2019-03-22T06:02:31.843Z,5.66
2019-03-22T06:04:59.210Z,5.66
2019-03-22T06:07:45.809Z,5.75
2019-03-22T06:10:13.209Z,5.87
2019-03-22T06:12:40.524Z,5.95
2019-03-22T06:15:08.946Z,5.95
2019-03-22T06:17:36.265Z,6.13
2019-03-22T06:20:03.809Z,6.14
2019-03-22T06:22:31.131Z,6.18
2019-03-22T06:24:58.361Z,6.39
2019-03-22T06:27:25.643Z,6.50
2019-03-22T06:29:54.379Z,6.46
2019-03-22T06:32:22.058Z,6.31
2019-03-22T06:34:49.348Z,6.40
2019-03-22T06:37:16.579Z,6.50
2019-03-22T06:39:43.796Z,6.58
2019-03-22T06:42:11.128Z,6.75
2019-03-22T06:44:38.414Z,6.86
2019-03-22T06:47:05.723Z,6.85
2019-03-22T06:49:32.928Z,6.83
2019-03-22T06:52:00.240Z,6.66
2019-03-22T06:54:31.731Z,7.06
2019-03-22T06:56:56.707Z,7.19
2019-03-22T06:59:23.915Z,7.32
2019-03-22T07:01:51.529Z,7.34
2019-03-22T07:04:18.737Z,7.42
2019-03-22T07:06:45.962Z,7.48
2019-03-22T07:09:13.284Z,7.34
2019-03-22T07:11:41.846Z,7.62
2019-03-22T07:14:09.303Z,7.82
2019-03-22T07:16:36.558Z,8.07
2019-03-22T07:19:04.352Z,8.25
2019-03-22T07:21:31.580Z,8.48
2019-03-22T07:23:58.869Z,8.51
2019-03-22T07:26:26.181Z,8.65
2019-03-22T07:28:53.387Z,8.87
2019-03-22T07:31:20.606Z,9.00
2019-03-22T07:33:47.916Z,9.23
2019-03-22T07:36:15.184Z,9.27
2019-03-22T07:38:42.457Z,9.40
2019-03-22T07:41:09.784Z,9.31
2019-03-22T07:43:36.997Z,9.50
2019-03-22T07:46:04.204Z,9.44
2019-03-22T07:48:31.406Z,9.50
2019-03-22T07:50:58.726Z,9.47
2019-03-22T07:53:25.816Z,9.74
2019-03-22T07:55:53.108Z,9.70
2019-03-22T07:58:20.361Z,9.45
2019-03-22T08:00:47.667Z,9.55
2019-03-22T08:03:14.959Z,10.05
2019-03-22T08:05:51.035Z,10.62
2019-03-22T08:08:11.502Z,11.10
2019-03-22T08:10:38.706Z,11.22
2019-03-22T08:13:06.027Z,11.70
2019-03-22T08:15:33.384Z,12.28
2019-03-22T08:18:00.633Z,12.87
2019-03-22T08:20:28.582Z,13.57
2019-03-22T08:22:56.242Z,14.77
2019-03-22T08:25:23.428Z,15.95
2019-03-22T08:27:50.722Z,16.53
2019-03-22T08:30:18.024Z,15.04
2019-03-22T08:32:45.334Z,15.07
2019-03-22T08:35:12.631Z,15.11
2019-03-22T08:37:51.788Z,12.85
2019-03-22T08:40:09.077Z,12.58
2019-03-22T08:42:36.397Z,12.89
2019-03-22T08:45:04.060Z,15.01
2019-03-22T08:47:34.258Z,18.32
2019-03-22T08:50:00.590Z,21.45
2019-03-22T08:52:27.704Z,21.08
2019-03-22T08:54:54.867Z,23.97
2019-03-22T08:57:24.864Z,25.72
2019-03-22T08:59:51.509Z,27.37
2019-03-22T09:02:18.898Z,27.92
2019-03-22T09:04:46.013Z,28.29
2019-03-22T09:07:13.355Z,30.16
2019-03-22T09:09:41.871Z,28.19
2019-03-22T09:12:09.377Z,28.58
2019-03-22T09:14:36.651Z,28.57
2019-03-22T09:17:03.946Z,25.43
2019-03-22T09:19:31.259Z,24.55
2019-03-22T09:21:59.741Z,27.68
2019-03-22T09:24:38.613Z,30.78
2019-03-22T09:26:56.309Z,31.79
2019-03-22T09:29:23.568Z,31.78
2019-03-22T09:31:53.588Z,32.94
2019-03-22T09:34:32.926Z,34.48
2019-03-22T09:36:48.959Z,35.42
2019-03-22T09:39:16.332Z,37.64
2019-03-22T09:41:43.505Z,38.13
2019-03-22T09:44:10.855Z,38.75
2019-03-22T09:46:38.192Z,39.10
2019-03-22T09:49:05.524Z,38.03
2019-03-22T09:51:32.855Z,33.03
2019-03-22T09:54:00.139Z,33.54
2019-03-22T09:56:27.454Z,34.94
2019-03-22T09:58:54.734Z,32.68
2019-03-22T10:01:24.007Z,33.00
2019-03-22T10:03:51.081Z,35.82
2019-03-22T10:06:18.307Z,36.33
2019-03-22T10:08:46.364Z,38.38
2019-03-22T10:11:13.714Z,38.28
2019-03-22T10:13:41.026Z,36.84
2019-03-22T10:16:08.365Z,34.25
2019-03-22T10:18:36.980Z,31.91
2019-03-22T10:21:04.497Z,32.44
2019-03-22T10:23:31.848Z,30.58
2019-03-22T10:25:59.072Z,29.90
2019-03-22T10:28:26.370Z,30.80
2019-03-22T10:30:53.697Z,33.86
2019-03-22T10:33:22.909Z,31.54
2019-03-22T10:35:50.305Z,30.66
2019-03-22T10:38:30.692Z,29.36
2019-03-22T10:40:47.294Z,29.64
2019-03-22T10:43:14.530Z,31.00
2019-03-22T10:45:41.796Z,31.96
2019-03-22T10:48:09.119Z,33.39
2019-03-22T10:50:36.462Z,35.19
2019-03-22T10:53:03.764Z,35.27
2019-03-22T10:55:31.007Z,34.60
2019-03-22T10:57:58.323Z,35.69
2019-03-22T11:00:25.634Z,35.21
2019-03-22T11:02:52.934Z,37.83
2019-03-22T11:05:20.233Z,40.40
2019-03-22T11:07:47.546Z,36.55
2019-03-22T11:10:15.076Z,35.81
2019-03-22T11:12:42.449Z,32.14
2019-03-22T11:15:10.346Z,30.42
2019-03-22T11:17:37.669Z,29.09
2019-03-22T11:20:06.842Z,31.39
2019-03-22T11:22:34.144Z,29.41
2019-03-22T11:25:01.522Z,31.67
2019-03-22T11:27:28.815Z,31.46
2019-03-22T11:29:56.148Z,30.96
2019-03-22T11:32:23.487Z,30.67
2019-03-22T11:34:50.702Z,28.84
2019-03-22T11:37:18.035Z,29.68
2019-03-22T11:39:45.259Z,30.40
2019-03-22T11:42:12.569Z,30.09
2019-03-22T11:44:39.789Z,30.50
2019-03-22T11:47:07.088Z,32.81
2019-03-22T11:49:34.412Z,32.44
2019-03-22T11:52:01.723Z,30.62
2019-03-22T11:54:29.048Z,30.09
2019-03-22T11:56:56.271Z,31.64
2019-03-22T11:59:23.660Z,33.27
2019-03-22T12:01:50.942Z,33.93
2019-03-22T12:04:18.283Z,32.37
2019-03-22T12:06:45.598Z,33.48
2019-03-22T12:09:12.920Z,32.68
2019-03-22T12:11:42.085Z,31.66
2019-03-22T12:14:09.454Z,33.15
2019-03-22T12:16:36.920Z,32.91
2019-03-22T12:19:04.339Z,30.98
2019-03-22T12:21:51.264Z,31.74
2019-03-22T12:24:18.791Z,32.83
2019-03-22T12:26:46.219Z,31.68
2019-03-22T12:29:13.555Z,30.81
2019-03-22T12:31:40.860Z,30.81
2019-03-22T12:34:08.189Z,32.35
2019-03-22T12:36:35.404Z,30.59
2019-03-22T12:39:04.810Z,32.19
2019-03-22T12:41:32.101Z,33.38
2019-03-22T12:43:59.335Z,30.40
2019-03-22T12:46:26.682Z,28.50
2019-03-22T12:48:53.984Z,30.70
2019-03-22T12:51:21.198Z,33.27
2019-03-22T12:53:48.509Z,33.08
2019-03-22T12:56:15.864Z,32.17
2019-03-22T12:58:43.106Z,31.46
2019-03-22T13:01:10.426Z,31.21
2019-03-22T13:03:37.835Z,32.48
2019-03-22T13:06:05.179Z,32.63
2019-03-22T13:08:33.850Z,32.26
2019-03-22T13:11:01.285Z,32.26
2019-03-22T13:13:28.510Z,30.16
2019-03-22T13:15:55.866Z,29.43
2019-03-22T13:18:23.037Z,29.51
2019-03-22T13:20:51.210Z,29.46
2019-03-22T13:23:18.393Z,29.56
2019-03-22T13:25:45.723Z,30.31
2019-03-22T13:28:12.935Z,30.96
2019-03-22T13:30:40.262Z,30.69
2019-03-22T13:33:07.599Z,29.50
2019-03-22T13:35:34.926Z,30.51
2019-03-22T13:38:05.041Z,30.33
2019-03-22T13:40:32.404Z,30.43
2019-03-22T13:42:59.599Z,30.37
2019-03-22T13:45:28.027Z,30.58
2019-03-22T13:47:55.370Z,30.41
2019-03-22T13:50:22.926Z,30.34
2019-03-22T13:52:50.314Z,29.20
2019-03-22T13:55:17.935Z,29.40
2019-03-22T13:57:45.260Z,28.52
2019-03-22T14:00:12.711Z,30.04
2019-03-22T14:02:40.031Z,31.08
2019-03-22T14:05:07.769Z,31.79
2019-03-22T14:07:35.224Z,30.38
2019-03-22T14:10:03.242Z,31.27
2019-03-22T14:12:36.955Z,32.57
2019-03-22T14:14:59.671Z,31.07
2019-03-22T14:17:26.990Z,31.02
2019-03-22T14:19:54.307Z,30.11
2019-03-22T14:22:21.607Z,28.54
2019-03-22T14:24:49.246Z,27.60
2019-03-22T14:27:16.563Z,28.11
2019-03-22T14:29:43.872Z,28.69
2019-03-22T14:32:11.202Z,29.73
2019-03-22T14:34:38.412Z,29.86
2019-03-22T14:37:05.743Z,29.06
2019-03-22T14:39:33.094Z,28.46
2019-03-22T14:42:00.724Z,27.60
2019-03-22T14:44:28.365Z,27.98
2019-03-22T14:46:55.586Z,29.52
2019-03-22T14:49:22.795Z,30.37
2019-03-22T14:51:50.956Z,28.40
2019-03-22T14:54:18.318Z,29.52
2019-03-22T14:56:45.560Z,28.32
2019-03-22T14:59:12.776Z,28.01
2019-03-22T15:01:40.007Z,26.93
2019-03-22T15:04:07.317Z,27.85
2019-03-22T15:06:34.648Z,27.52
2019-03-22T15:09:01.945Z,26.95
2019-03-22T15:11:29.262Z,26.76
2019-03-22T15:14:01.486Z,25.70
2019-03-22T15:16:54.474Z,25.22
2019-03-22T15:19:39.098Z,24.92
2019-03-22T15:22:17.433Z,24.64
2019-03-22T15:25:05.664Z,26.28
2019-03-22T15:27:52.533Z,26.32
2019-03-22T15:30:38.086Z,26.80
2019-03-22T15:33:34.315Z,26.93
2019-03-22T15:36:25.098Z,27.42
2019-03-22T15:39:10.563Z,27.59
2019-03-22T15:41:37.754Z,26.11
2019-03-22T15:44:05.132Z,25.39
2019-03-22T15:46:32.460Z,25.70
2019-03-22T15:48:59.684Z,25.52
2019-03-22T15:51:26.974Z,25.54
2019-03-22T15:53:54.186Z,25.53
2019-03-22T15:56:21.539Z,25.50
2019-03-22T15:58:48.842Z,25.85
2019-03-22T16:01:15.942Z,26.41
2019-03-22T16:03:44.469Z,26.75
2019-03-22T16:06:12.184Z,27.53
2019-03-22T16:08:39.392Z,28.79
2019-03-22T16:11:06.696Z,29.60
2019-03-22T16:13:34.600Z,28.69
2019-03-22T16:16:02.022Z,29.44
2019-03-22T16:18:29.503Z,30.48
2019-03-22T16:21:00.012Z,29.40
2019-03-22T16:23:25.951Z,29.22
2019-03-22T16:25:53.154Z,29.72
2019-03-22T16:28:20.372Z,30.03
2019-03-22T16:30:47.677Z,29.91
2019-03-22T16:33:14.898Z,29.07
2019-03-22T16:35:42.209Z,27.08
2019-03-22T16:38:09.323Z,24.34
2019-03-22T16:40:36.633Z,23.22
2019-03-22T16:43:03.961Z,21.98
2019-03-22T16:45:38.921Z,22.01
2019-03-22T16:48:06.474Z,21.53
2019-03-22T16:50:33.770Z,21.44
2019-03-22T16:53:01.097Z,21.20
2019-03-22T16:55:28.402Z,21.09
2019-03-22T16:57:55.868Z,21.06
2019-03-22T17:00:23.186Z,21.00
2019-03-22T17:02:50.583Z,21.04
2019-03-22T17:05:20.330Z,20.88
2019-03-22T17:07:48.127Z,21.06
2019-03-22T17:10:15.444Z,20.91
2019-03-22T17:12:43.089Z,20.59
2019-03-22T17:15:10.443Z,20.28
2019-03-22T17:17:37.968Z,19.98
2019-03-22T17:20:06.855Z,19.65
2019-03-22T17:22:34.303Z,19.50
2019-03-22T17:25:01.619Z,19.36
2019-03-22T17:27:28.921Z,19.18
2019-03-22T17:29:56.213Z,19.08
2019-03-22T17:32:23.434Z,18.93
2019-03-22T17:34:51.879Z,18.75
2019-03-22T17:37:19.369Z,18.66
2019-03-22T17:39:46.741Z,18.61
2019-03-22T17:42:14.059Z,18.39
2019-03-22T17:44:41.404Z,18.10
2019-03-22T17:47:08.705Z,17.89
2019-03-22T17:49:36.031Z,17.63
2019-03-22T17:52:03.362Z,17.47
2019-03-22T17:54:30.671Z,17.31
2019-03-22T17:56:58.027Z,17.24
2019-03-22T17:59:25.243Z,17.07
2019-03-22T18:01:52.647Z,17.04
2019-03-22T18:04:24.052Z,16.76
2019-03-22T18:06:49.173Z,16.54
2019-03-22T18:09:16.487Z,16.52
2019-03-22T18:11:43.787Z,16.38
2019-03-22T18:14:11.131Z,16.34
2019-03-22T18:16:38.444Z,16.30
2019-03-22T18:19:05.734Z,16.02
2019-03-22T18:21:33.058Z,15.79
2019-03-22T18:24:00.385Z,15.59
2019-03-22T18:26:27.512Z,15.42
2019-03-22T18:28:54.712Z,15.38
2019-03-22T18:31:21.918Z,15.46
2019-03-22T18:33:49.231Z,15.35
2019-03-22T18:36:16.548Z,15.44
2019-03-22T18:38:44.099Z,15.11
2019-03-22T18:41:11.531Z,15.00
2019-03-22T18:43:38.866Z,15.04
2019-03-22T18:46:06.145Z,14.89
2019-03-22T18:48:33.596Z,14.76
2019-03-22T18:51:00.912Z,14.80
2019-03-22T18:53:28.127Z,14.79
2019-03-22T18:55:55.428Z,13.93
2019-03-22T18:58:23.769Z,14.69
2019-03-22T19:00:51.163Z,14.76
2019-03-22T19:03:18.386Z,14.74
2019-03-22T19:05:45.757Z,14.62
2019-03-22T19:08:13.090Z,14.46
2019-03-22T19:10:40.305Z,14.56
2019-03-22T19:13:07.877Z,14.34
2019-03-22T19:15:35.239Z,14.12
2019-03-22T19:18:02.449Z,14.19
2019-03-22T19:20:29.778Z,14.01
2019-03-22T19:22:57.109Z,13.94
2019-03-22T19:25:24.413Z,13.79
2019-03-22T19:27:51.750Z,13.73
2019-03-22T19:30:19.066Z,13.72
2019-03-22T19:32:46.373Z,13.54
2019-03-22T19:35:13.826Z,13.46
2019-03-22T19:37:41.140Z,13.50
2019-03-22T19:40:08.797Z,13.38
2019-03-22T19:42:36.113Z,13.32
2019-03-22T19:45:04.192Z,13.23
2019-03-22T19:47:31.413Z,13.19
2019-03-22T19:49:58.725Z,13.13
2019-03-22T19:52:26.113Z,13.01
2019-03-22T19:54:53.313Z,13.00
2019-03-22T19:57:20.555Z,13.14
2019-03-22T19:59:47.856Z,13.03
2019-03-22T20:02:15.062Z,12.92
2019-03-22T20:04:42.296Z,13.02
2019-03-22T20:07:09.618Z,13.04
2019-03-22T20:09:36.952Z,13.09
2019-03-22T20:12:04.254Z,12.76
2019-03-22T20:14:31.504Z,12.85
2019-03-22T20:16:58.731Z,12.52
2019-03-22T20:19:25.982Z,12.35
2019-03-22T20:21:53.191Z,12.33
2019-03-22T20:24:20.521Z,12.28
2019-03-22T20:26:47.821Z,12.30
2019-03-22T20:29:15.261Z,12.15
2019-03-22T20:31:42.550Z,12.07
2019-03-22T20:34:09.875Z,12.11
2019-03-22T20:36:37.065Z,12.05
2019-03-22T20:39:05.978Z,12.34
2019-03-22T20:41:33.584Z,12.13
2019-03-22T20:44:00.913Z,11.98
2019-03-22T20:46:28.213Z,12.08
2019-03-22T20:48:55.425Z,11.79
2019-03-22T20:51:22.735Z,11.71
2019-03-22T20:53:50.014Z,11.62
2019-03-22T20:56:17.245Z,11.50
2019-03-22T20:58:44.590Z,11.44
2019-03-22T21:01:11.807Z,11.33
2019-03-22T21:03:39.133Z,11.30
2019-03-22T21:06:06.356Z,11.30
2019-03-22T21:08:33.709Z,11.26
2019-03-22T21:11:00.994Z,11.20
2019-03-22T21:13:28.323Z,11.18
2019-03-22T21:15:55.685Z,11.15
2019-03-22T21:18:22.891Z,11.07
2019-03-22T21:20:50.170Z,10.99
2019-03-22T21:23:17.383Z,10.92
2019-03-22T21:25:44.718Z,10.86
2019-03-22T21:28:11.938Z,10.78
2019-03-22T21:30:39.061Z,10.81
2019-03-22T21:33:06.360Z,10.90
2019-03-22T21:35:37.602Z,10.82
2019-03-22T21:38:10.726Z,10.76
2019-03-22T21:40:31.945Z,10.88
2019-03-22T21:42:59.255Z,10.94
2019-03-22T21:45:26.471Z,10.86
2019-03-22T21:47:53.677Z,10.71
2019-03-22T21:50:21.330Z,10.76
2019-03-22T21:52:48.480Z,10.82
2019-03-22T21:55:15.812Z,10.63
2019-03-22T21:57:43.031Z,10.52
2019-03-22T22:00:10.674Z,10.63
2019-03-22T22:02:38.020Z,10.43
2019-03-22T22:05:06.362Z,10.25
2019-03-22T22:07:33.662Z,10.15
2019-03-22T22:10:00.984Z,10.15
2019-03-22T22:12:29.873Z,10.00
2019-03-22T22:14:57.219Z,10.00
2019-03-22T22:17:24.516Z,10.14
2019-03-22T22:19:51.759Z,10.09
2019-03-22T22:22:19.077Z,10.02
2019-03-22T22:24:46.401Z,10.11
2019-03-22T22:27:14.346Z,9.96
2019-03-22T22:29:41.700Z,9.87
2019-03-22T22:32:09.016Z,9.83
2019-03-22T22:34:36.269Z,9.98
2019-03-22T22:37:03.595Z,9.79
2019-03-22T22:39:30.940Z,9.69
2019-03-22T22:41:58.168Z,9.71
2019-03-22T22:44:25.431Z,9.97
2019-03-22T22:46:52.761Z,9.81
2019-03-22T22:49:20.094Z,9.71
2019-03-22T22:51:47.410Z,9.88
2019-03-22T22:54:14.710Z,9.90
2019-03-22T22:56:41.959Z,10.07
2019-03-22T22:59:09.277Z,9.95
2019-03-22T23:01:36.490Z,9.72
2019-03-22T23:04:03.808Z,9.62
2019-03-22T23:06:31.345Z,9.86
2019-03-22T23:08:58.568Z,10.14
2019-03-22T23:11:26.100Z,10.60
2019-03-22T23:13:53.302Z,10.49
2019-03-22T23:16:20.531Z,10.34
2019-03-22T23:18:47.840Z,10.05
2019-03-22T23:21:15.175Z,9.79
2019-03-22T23:23:42.437Z,9.74
2019-03-22T23:26:09.773Z,9.83
2019-03-22T23:28:37.103Z,9.60
2019-03-22T23:31:04.335Z,9.52
2019-03-22T23:33:31.643Z,9.63
2019-03-22T23:35:58.974Z,9.67
2019-03-22T23:38:26.306Z,9.76
2019-03-22T23:40:53.611Z,9.61
2019-03-22T23:43:20.734Z,9.51
2019-03-22T23:45:47.965Z,9.83
2019-03-22T23:48:15.167Z,9.77
2019-03-22T23:50:42.391Z,9.78
2019-03-22T23:53:09.604Z,9.37
2019-03-22T23:55:36.935Z,9.14
2019-03-22T23:58:04.529Z,8.98
